BVX132 KSAN-KSFO
Flight info
| Callsign | BVX132 |
|---|---|
| Flight time | 1h 9m |
| Altitude | 36000 |
| Route | PADRZ2 IKAYE RIZIN SPLNT STOKD SERFR SERFR4 |
| Aircraft | A320/M-SDE3FGHIRWY/LB1 |
Departure
| Time | 2026-04-22 05:38 |
|---|---|
| Airport | San Diego International Airport (KSAN) |
Arrival
| Time | 2026-04-22 06:47 |
|---|---|
| Airport | San Francisco International Airport (KSFO) |
| Time | Latitude | Longitude | Altitude | Speed | Heading |
|---|---|---|---|---|---|
| 2026-04-22 05:04 | 32.73338 | -117.20188 | 23 ft | 0 kts | 83° |
| 2026-04-22 05:24 | 32.73337 | -117.20196 | 23 ft | 2 kts | 83° |
| 2026-04-22 05:25 | 32.73334 | -117.20220 | 23 ft | 3 kts | 83° |
| 2026-04-22 05:25 | 32.73332 | -117.20243 | 27 ft | 3 kts | 78° |
| 2026-04-22 05:25 | 32.73328 | -117.20261 | 24 ft | 3 kts | 27° |
| 2026-04-22 05:25 | 32.73321 | -117.20264 | 23 ft | 1 kts | 346° |
| 2026-04-22 05:26 | 32.73313 | -117.20261 | 26 ft | 0 kts | 346° |
| 2026-04-22 05:28 | 32.73336 | -117.20268 | 23 ft | 4 kts | 345° |
| 2026-04-22 05:29 | 32.73372 | -117.20278 | 23 ft | 8 kts | 354° |
| 2026-04-22 05:29 | 32.73443 | -117.20262 | 23 ft | 12 kts | 15° |
| 2026-04-22 05:29 | 32.73527 | -117.20226 | 24 ft | 13 kts | 38° |
| 2026-04-22 05:29 | 32.73535 | -117.20130 | 23 ft | 12 kts | 105° |
| 2026-04-22 05:30 | 32.73513 | -117.20044 | 23 ft | 10 kts | 106° |
| 2026-04-22 05:30 | 32.73493 | -117.19959 | 23 ft | 13 kts | 106° |
| 2026-04-22 05:30 | 32.73469 | -117.19861 | 23 ft | 12 kts | 105° |
| 2026-04-22 05:30 | 32.73447 | -117.19770 | 23 ft | 14 kts | 106° |
| 2026-04-22 05:31 | 32.73414 | -117.19635 | 25 ft | 18 kts | 106° |
| 2026-04-22 05:31 | 32.73382 | -117.19501 | 24 ft | 16 kts | 106° |
| 2026-04-22 05:31 | 32.73352 | -117.19377 | 23 ft | 15 kts | 106° |
| 2026-04-22 05:31 | 32.73325 | -117.19265 | 23 ft | 13 kts | 106° |
| 2026-04-22 05:32 | 32.73301 | -117.19166 | 24 ft | 12 kts | 106° |
| 2026-04-22 05:32 | 32.73279 | -117.19076 | 23 ft | 10 kts | 106° |
| 2026-04-22 05:32 | 32.73259 | -117.18993 | 23 ft | 12 kts | 106° |
| 2026-04-22 05:32 | 32.73224 | -117.18850 | 24 ft | 21 kts | 106° |
| 2026-04-22 05:33 | 32.73184 | -117.18684 | 26 ft | 22 kts | 106° |
| 2026-04-22 05:33 | 32.73143 | -117.18515 | 25 ft | 21 kts | 106° |
| 2026-04-22 05:33 | 32.73104 | -117.18355 | 25 ft | 20 kts | 106° |
| 2026-04-22 05:33 | 32.73067 | -117.18202 | 27 ft | 19 kts | 106° |
| 2026-04-22 05:34 | 32.73033 | -117.18060 | 26 ft | 17 kts | 106° |
| 2026-04-22 05:34 | 32.73002 | -117.17933 | 25 ft | 15 kts | 106° |
| 2026-04-22 05:34 | 32.72980 | -117.17845 | 27 ft | 7 kts | 108° |
| 2026-04-22 05:34 | 32.72968 | -117.17803 | 25 ft | 4 kts | 108° |
| 2026-04-22 05:35 | 32.72955 | -117.17755 | 26 ft | 8 kts | 108° |
| 2026-04-22 05:35 | 32.72952 | -117.17691 | 26 ft | 7 kts | 76° |
| 2026-04-22 05:35 | 32.72955 | -117.17681 | 26 ft | 0 kts | 75° |
| 2026-04-22 05:35 | 32.72967 | -117.17636 | 26 ft | 12 kts | 65° |
| 2026-04-22 05:36 | 32.73028 | -117.17625 | 27 ft | 10 kts | 308° |
| 2026-04-22 05:36 | 32.73043 | -117.17672 | 26 ft | 0 kts | 286° |
| 2026-04-22 05:37 | 32.73044 | -117.17679 | 25 ft | 6 kts | 286° |
| 2026-04-22 05:37 | 32.73136 | -117.18055 | 24 ft | 93 kts | 286° |
| 2026-04-22 05:37 | 32.73386 | -117.19084 | 24 ft | 163 kts | 285° |
| 2026-04-22 05:37 | 32.73734 | -117.20537 | 424 ft | 192 kts | 287° |
| 2026-04-22 05:38 | 32.74225 | -117.22061 | 1115 ft | 206 kts | 298° |
| 2026-04-22 05:38 | 32.75024 | -117.23601 | 1554 ft | 230 kts | 304° |
| 2026-04-22 05:38 | 32.75971 | -117.25204 | 2299 ft | 241 kts | 305° |
| 2026-04-22 05:38 | 32.76957 | -117.26835 | 3221 ft | 246 kts | 305° |
| 2026-04-22 05:39 | 32.77968 | -117.28515 | 4096 ft | 252 kts | 304° |
| 2026-04-22 05:39 | 32.78985 | -117.30226 | 5049 ft | 255 kts | 303° |
| 2026-04-22 05:39 | 32.80013 | -117.31968 | 5958 ft | 259 kts | 303° |
| 2026-04-22 05:39 | 32.81099 | -117.33701 | 6811 ft | 264 kts | 305° |
| 2026-04-22 05:40 | 32.82213 | -117.35417 | 7639 ft | 267 kts | 304° |
| 2026-04-22 05:40 | 32.83358 | -117.37165 | 8493 ft | 270 kts | 304° |
| 2026-04-22 05:40 | 32.84523 | -117.38944 | 9370 ft | 273 kts | 303° |
| 2026-04-22 05:40 | 32.85695 | -117.40743 | 10200 ft | 277 kts | 303° |
| 2026-04-22 05:41 | 32.86912 | -117.42627 | 10580 ft | 298 kts | 302° |
| 2026-04-22 05:41 | 32.88218 | -117.44666 | 10820 ft | 321 kts | 303° |
| 2026-04-22 05:41 | 32.89619 | -117.46858 | 11002 ft | 344 kts | 303° |
| 2026-04-22 05:41 | 32.91101 | -117.49166 | 11436 ft | 355 kts | 303° |
| 2026-04-22 05:42 | 32.92620 | -117.51518 | 12100 ft | 360 kts | 303° |
| 2026-04-22 05:42 | 32.94155 | -117.53891 | 12810 ft | 363 kts | 303° |
| 2026-04-22 05:42 | 32.95700 | -117.56286 | 13524 ft | 366 kts | 303° |
| 2026-04-22 05:42 | 32.97233 | -117.58670 | 14189 ft | 369 kts | 303° |
| 2026-04-22 05:43 | 32.98816 | -117.61136 | 14819 ft | 371 kts | 303° |
| 2026-04-22 05:43 | 33.00370 | -117.63561 | 15436 ft | 374 kts | 303° |
| 2026-04-22 05:43 | 33.01949 | -117.66029 | 16053 ft | 375 kts | 303° |
| 2026-04-22 05:43 | 33.03536 | -117.68513 | 16667 ft | 377 kts | 303° |
| 2026-04-22 05:44 | 33.05129 | -117.71008 | 17259 ft | 379 kts | 303° |
| 2026-04-22 05:44 | 33.06867 | -117.73413 | 17846 ft | 387 kts | 311° |
| 2026-04-22 05:44 | 33.08910 | -117.75536 | 18409 ft | 392 kts | 314° |
| 2026-04-22 05:44 | 33.10991 | -117.77640 | 18897 ft | 394 kts | 314° |
| 2026-04-22 05:45 | 33.13084 | -117.79763 | 19401 ft | 395 kts | 314° |
| 2026-04-22 05:45 | 33.15179 | -117.81894 | 19911 ft | 396 kts | 314° |
| 2026-04-22 05:45 | 33.17278 | -117.84031 | 20417 ft | 398 kts | 314° |
| 2026-04-22 05:45 | 33.19383 | -117.86190 | 20931 ft | 398 kts | 313° |
| 2026-04-22 05:46 | 33.21420 | -117.88423 | 21441 ft | 398 kts | 311° |
| 2026-04-22 05:46 | 33.23400 | -117.90745 | 21916 ft | 398 kts | 309° |
| 2026-04-22 05:46 | 33.25344 | -117.93111 | 22391 ft | 399 kts | 309° |
| 2026-04-22 05:46 | 33.27278 | -117.95493 | 22852 ft | 400 kts | 308° |
| 2026-04-22 05:47 | 33.29226 | -117.97885 | 23297 ft | 402 kts | 309° |
| 2026-04-22 05:47 | 33.31165 | -118.00241 | 23728 ft | 403 kts | 309° |
| 2026-04-22 05:47 | 33.33148 | -118.02631 | 24099 ft | 405 kts | 309° |
| 2026-04-22 05:47 | 33.35141 | -118.05017 | 24464 ft | 407 kts | 309° |
| 2026-04-22 05:48 | 33.37151 | -118.07416 | 24838 ft | 408 kts | 309° |
| 2026-04-22 05:48 | 33.39154 | -118.09805 | 25256 ft | 408 kts | 309° |
| 2026-04-22 05:48 | 33.41163 | -118.12204 | 25612 ft | 408 kts | 309° |
| 2026-04-22 05:48 | 33.43179 | -118.14617 | 25963 ft | 410 kts | 309° |
| 2026-04-22 05:49 | 33.45196 | -118.17033 | 26279 ft | 411 kts | 309° |
| 2026-04-22 05:49 | 33.47216 | -118.19457 | 26599 ft | 412 kts | 309° |
| 2026-04-22 05:49 | 33.49244 | -118.21889 | 26914 ft | 413 kts | 309° |
| 2026-04-22 05:49 | 33.51279 | -118.24333 | 27218 ft | 415 kts | 309° |
| 2026-04-22 05:50 | 33.53317 | -118.26788 | 27531 ft | 416 kts | 309° |
| 2026-04-22 05:50 | 33.55360 | -118.29251 | 27928 ft | 414 kts | 309° |
| 2026-04-22 05:50 | 33.57390 | -118.31694 | 28404 ft | 413 kts | 309° |
| 2026-04-22 05:50 | 33.59409 | -118.34129 | 28834 ft | 411 kts | 309° |
| 2026-04-22 05:51 | 33.61400 | -118.36537 | 29264 ft | 410 kts | 309° |
| 2026-04-22 05:51 | 33.63406 | -118.38963 | 29794 ft | 405 kts | 309° |
| 2026-04-22 05:51 | 33.65382 | -118.41350 | 30334 ft | 401 kts | 309° |
| 2026-04-22 05:51 | 33.67353 | -118.43729 | 30748 ft | 398 kts | 309° |
| 2026-04-22 05:52 | 33.69279 | -118.46057 | 31097 ft | 397 kts | 309° |
| 2026-04-22 05:52 | 33.71223 | -118.48411 | 31451 ft | 396 kts | 308° |
| 2026-04-22 05:52 | 33.73155 | -118.50755 | 31794 ft | 395 kts | 308° |
| 2026-04-22 05:52 | 33.75092 | -118.53103 | 32175 ft | 394 kts | 308° |
| 2026-04-22 05:53 | 33.77017 | -118.55439 | 32522 ft | 393 kts | 308° |
| 2026-04-22 05:53 | 33.78944 | -118.57778 | 32887 ft | 392 kts | 308° |
| 2026-04-22 05:53 | 33.80857 | -118.60103 | 33233 ft | 391 kts | 308° |
| 2026-04-22 05:53 | 33.82764 | -118.62425 | 33589 ft | 390 kts | 307° |
| 2026-04-22 05:54 | 33.84672 | -118.64746 | 33948 ft | 389 kts | 307° |
| 2026-04-22 05:54 | 33.86569 | -118.67058 | 34277 ft | 387 kts | 307° |
| 2026-04-22 05:54 | 33.88458 | -118.69362 | 34597 ft | 386 kts | 307° |
| 2026-04-22 05:54 | 33.90340 | -118.71661 | 34887 ft | 385 kts | 307° |
| 2026-04-22 05:55 | 33.92218 | -118.73953 | 35217 ft | 384 kts | 307° |
| 2026-04-22 05:55 | 33.94066 | -118.76205 | 35509 ft | 382 kts | 307° |
| 2026-04-22 05:55 | 33.95935 | -118.78487 | 35772 ft | 382 kts | 307° |
| 2026-04-22 05:55 | 33.97797 | -118.80764 | 36016 ft | 381 kts | 306° |
| 2026-04-22 05:56 | 33.99661 | -118.83046 | 36141 ft | 382 kts | 306° |
| 2026-04-22 05:56 | 34.01532 | -118.85344 | 36167 ft | 384 kts | 306° |
| 2026-04-22 05:56 | 34.05289 | -118.89954 | 36168 ft | 385 kts | 306° |
| 2026-04-22 05:57 | 34.09055 | -118.94564 | 36220 ft | 386 kts | 306° |
| 2026-04-22 05:57 | 34.12781 | -118.99146 | 36163 ft | 385 kts | 306° |
| 2026-04-22 05:58 | 34.15951 | -119.04193 | 36175 ft | 374 kts | 296° |
| 2026-04-22 05:58 | 34.18702 | -119.09530 | 36170 ft | 374 kts | 296° |
| 2026-04-22 05:59 | 34.21455 | -119.14865 | 36174 ft | 374 kts | 296° |
| 2026-04-22 05:59 | 34.24208 | -119.20211 | 36178 ft | 374 kts | 296° |
| 2026-04-22 06:00 | 34.26948 | -119.25551 | 36198 ft | 374 kts | 296° |
| 2026-04-22 06:00 | 34.29689 | -119.30884 | 36190 ft | 373 kts | 296° |
| 2026-04-22 06:01 | 34.32405 | -119.36182 | 36187 ft | 373 kts | 296° |
| 2026-04-22 06:01 | 34.35136 | -119.41515 | 36180 ft | 373 kts | 296° |
| 2026-04-22 06:02 | 34.37858 | -119.46853 | 36178 ft | 373 kts | 296° |
| 2026-04-22 06:02 | 34.40595 | -119.52186 | 36195 ft | 374 kts | 298° |
| 2026-04-22 06:03 | 34.44125 | -119.56942 | 36164 ft | 382 kts | 307° |
| 2026-04-22 06:03 | 34.47862 | -119.61520 | 36156 ft | 383 kts | 307° |
| 2026-04-22 06:04 | 34.51591 | -119.66110 | 36156 ft | 382 kts | 307° |
| 2026-04-22 06:04 | 34.55295 | -119.70675 | 36158 ft | 382 kts | 306° |
| 2026-04-22 06:05 | 34.59020 | -119.75282 | 36165 ft | 382 kts | 307° |
| 2026-04-22 06:05 | 34.62752 | -119.79893 | 36162 ft | 383 kts | 307° |
| 2026-04-22 06:06 | 34.66481 | -119.84500 | 36154 ft | 382 kts | 307° |
| 2026-04-22 06:06 | 34.70214 | -119.89121 | 36160 ft | 382 kts | 307° |
| 2026-04-22 06:07 | 34.73910 | -119.93708 | 36211 ft | 382 kts | 306° |
| 2026-04-22 06:07 | 34.77645 | -119.98359 | 36188 ft | 381 kts | 306° |
| 2026-04-22 06:08 | 34.81355 | -120.02972 | 36195 ft | 382 kts | 306° |
| 2026-04-22 06:08 | 34.85046 | -120.07572 | 36194 ft | 382 kts | 306° |
| 2026-04-22 06:09 | 34.88761 | -120.12198 | 36162 ft | 381 kts | 307° |
| 2026-04-22 06:09 | 34.92460 | -120.16820 | 36221 ft | 380 kts | 306° |
| 2026-04-22 06:10 | 34.96153 | -120.21443 | 36204 ft | 380 kts | 306° |
| 2026-04-22 06:10 | 34.99846 | -120.26063 | 36202 ft | 380 kts | 306° |
| 2026-04-22 06:11 | 35.03512 | -120.30663 | 36192 ft | 380 kts | 306° |
| 2026-04-22 06:11 | 35.07183 | -120.35286 | 36228 ft | 379 kts | 306° |
| 2026-04-22 06:12 | 35.10919 | -120.39852 | 36208 ft | 382 kts | 308° |
| 2026-04-22 06:12 | 35.14863 | -120.44225 | 36194 ft | 383 kts | 310° |
| 2026-04-22 06:13 | 35.18835 | -120.48559 | 36190 ft | 382 kts | 309° |
| 2026-04-22 06:13 | 35.22761 | -120.52926 | 36186 ft | 381 kts | 309° |
| 2026-04-22 06:14 | 35.26662 | -120.57316 | 36197 ft | 381 kts | 309° |
| 2026-04-22 06:14 | 35.30561 | -120.61712 | 36191 ft | 382 kts | 309° |
| 2026-04-22 06:15 | 35.34440 | -120.66088 | 36185 ft | 382 kts | 309° |
| 2026-04-22 06:15 | 35.38346 | -120.70498 | 36183 ft | 382 kts | 309° |
| 2026-04-22 06:16 | 35.42250 | -120.74907 | 36208 ft | 382 kts | 309° |
| 2026-04-22 06:16 | 35.46154 | -120.79326 | 36210 ft | 382 kts | 309° |
| 2026-04-22 06:17 | 35.49498 | -120.82891 | 36202 ft | 387 kts | 314° |
| 2026-04-22 06:17 | 35.53805 | -120.86883 | 36196 ft | 388 kts | 314° |
| 2026-04-22 06:18 | 35.58112 | -120.90873 | 36237 ft | 388 kts | 314° |
| 2026-04-22 06:18 | 35.62423 | -120.94881 | 36195 ft | 389 kts | 314° |
| 2026-04-22 06:19 | 35.66744 | -120.98900 | 36184 ft | 389 kts | 314° |
| 2026-04-22 06:19 | 35.71063 | -121.02917 | 36124 ft | 390 kts | 314° |
| 2026-04-22 06:20 | 35.73220 | -121.04927 | 35881 ft | 388 kts | 314° |
| 2026-04-22 06:20 | 35.75370 | -121.06934 | 35672 ft | 387 kts | 314° |
| 2026-04-22 06:20 | 35.77484 | -121.08908 | 35425 ft | 386 kts | 314° |
| 2026-04-22 06:20 | 35.79620 | -121.10900 | 35180 ft | 385 kts | 314° |
| 2026-04-22 06:21 | 35.81746 | -121.12887 | 34948 ft | 383 kts | 314° |
| 2026-04-22 06:21 | 35.83867 | -121.14870 | 34707 ft | 382 kts | 314° |
| 2026-04-22 06:21 | 35.85983 | -121.16849 | 34478 ft | 381 kts | 313° |
| 2026-04-22 06:21 | 35.88087 | -121.18821 | 34245 ft | 379 kts | 313° |
| 2026-04-22 06:22 | 35.90182 | -121.20790 | 33986 ft | 378 kts | 313° |
| 2026-04-22 06:22 | 35.92278 | -121.22759 | 33780 ft | 379 kts | 313° |
| 2026-04-22 06:22 | 35.94383 | -121.24740 | 33486 ft | 380 kts | 313° |
| 2026-04-22 06:22 | 35.96483 | -121.26716 | 33219 ft | 379 kts | 314° |
| 2026-04-22 06:23 | 35.98581 | -121.28689 | 32958 ft | 380 kts | 314° |
| 2026-04-22 06:23 | 36.00685 | -121.30666 | 32700 ft | 380 kts | 314° |
| 2026-04-22 06:23 | 36.02767 | -121.32627 | 32443 ft | 381 kts | 314° |
| 2026-04-22 06:23 | 36.04878 | -121.34617 | 32189 ft | 382 kts | 314° |
| 2026-04-22 06:24 | 36.09291 | -121.38384 | 31714 ft | 390 kts | 318° |
| 2026-04-22 06:24 | 36.11591 | -121.40172 | 31469 ft | 391 kts | 318° |
| 2026-04-22 06:24 | 36.13897 | -121.41965 | 31225 ft | 392 kts | 318° |
| 2026-04-22 06:25 | 36.16203 | -121.43766 | 30979 ft | 393 kts | 318° |
| 2026-04-22 06:25 | 36.18515 | -121.45577 | 30734 ft | 393 kts | 318° |
| 2026-04-22 06:25 | 36.20829 | -121.47388 | 30497 ft | 394 kts | 318° |
| 2026-04-22 06:25 | 36.23151 | -121.49208 | 30252 ft | 395 kts | 318° |
| 2026-04-22 06:26 | 36.25476 | -121.51029 | 29964 ft | 396 kts | 318° |
| 2026-04-22 06:26 | 36.27806 | -121.52853 | 29659 ft | 397 kts | 318° |
| 2026-04-22 06:26 | 36.30114 | -121.54662 | 29378 ft | 397 kts | 319° |
| 2026-04-22 06:26 | 36.32450 | -121.56490 | 28462 ft | 398 kts | 319° |
| 2026-04-22 06:27 | 36.34795 | -121.58329 | 27360 ft | 401 kts | 319° |
| 2026-04-22 06:27 | 36.37164 | -121.60191 | 26280 ft | 403 kts | 319° |
| 2026-04-22 06:27 | 36.39517 | -121.62035 | 25772 ft | 393 kts | 319° |
| 2026-04-22 06:27 | 36.41782 | -121.63795 | 25669 ft | 376 kts | 319° |
| 2026-04-22 06:28 | 36.43951 | -121.65476 | 25552 ft | 359 kts | 318° |
| 2026-04-22 06:28 | 36.46034 | -121.67102 | 25276 ft | 349 kts | 317° |
| 2026-04-22 06:28 | 36.48076 | -121.68711 | 25206 ft | 347 kts | 317° |
| 2026-04-22 06:28 | 36.50108 | -121.70323 | 25069 ft | 346 kts | 317° |
| 2026-04-22 06:29 | 36.52138 | -121.71939 | 24528 ft | 345 kts | 317° |
| 2026-04-22 06:29 | 36.54150 | -121.73543 | 24036 ft | 342 kts | 317° |
| 2026-04-22 06:29 | 36.56147 | -121.75129 | 23521 ft | 340 kts | 317° |
| 2026-04-22 06:29 | 36.58138 | -121.76706 | 23015 ft | 339 kts | 317° |
| 2026-04-22 06:30 | 36.60121 | -121.78275 | 22565 ft | 337 kts | 318° |
| 2026-04-22 06:30 | 36.62090 | -121.79834 | 22074 ft | 334 kts | 318° |
| 2026-04-22 06:30 | 36.64044 | -121.81384 | 21601 ft | 332 kts | 318° |
| 2026-04-22 06:30 | 36.65986 | -121.82922 | 21122 ft | 330 kts | 318° |
| 2026-04-22 06:31 | 36.67914 | -121.84453 | 20668 ft | 328 kts | 318° |
| 2026-04-22 06:31 | 36.69833 | -121.85977 | 20215 ft | 326 kts | 318° |
| 2026-04-22 06:31 | 36.71719 | -121.87472 | 19760 ft | 325 kts | 319° |
| 2026-04-22 06:31 | 36.73680 | -121.88904 | 19311 ft | 330 kts | 325° |
| 2026-04-22 06:32 | 36.75866 | -121.89893 | 18872 ft | 340 kts | 336° |
| 2026-04-22 06:32 | 36.78184 | -121.90537 | 18422 ft | 340 kts | 337° |
| 2026-04-22 06:32 | 36.80488 | -121.91172 | 17937 ft | 338 kts | 338° |
| 2026-04-22 06:32 | 36.82777 | -121.91807 | 17501 ft | 336 kts | 338° |
| 2026-04-22 06:33 | 36.85052 | -121.92441 | 16953 ft | 336 kts | 338° |
| 2026-04-22 06:33 | 36.87323 | -121.93077 | 16500 ft | 333 kts | 338° |
| 2026-04-22 06:33 | 36.89583 | -121.93708 | 16073 ft | 331 kts | 339° |
| 2026-04-22 06:33 | 36.91825 | -121.94337 | 15652 ft | 329 kts | 339° |
| 2026-04-22 06:34 | 36.94056 | -121.94967 | 15221 ft | 328 kts | 339° |
| 2026-04-22 06:34 | 36.96266 | -121.95637 | 14749 ft | 327 kts | 338° |
| 2026-04-22 06:34 | 36.98466 | -121.96438 | 14136 ft | 330 kts | 337° |
| 2026-04-22 06:34 | 37.00614 | -121.97293 | 13522 ft | 331 kts | 337° |
| 2026-04-22 06:35 | 37.02789 | -121.98184 | 13142 ft | 326 kts | 337° |
| 2026-04-22 06:35 | 37.04940 | -121.99063 | 12650 ft | 324 kts | 337° |
| 2026-04-22 06:35 | 37.07081 | -121.99924 | 12140 ft | 323 kts | 338° |
| 2026-04-22 06:35 | 37.09214 | -122.00772 | 11662 ft | 321 kts | 338° |
| 2026-04-22 06:36 | 37.11345 | -122.01610 | 11189 ft | 320 kts | 338° |
| 2026-04-22 06:36 | 37.13416 | -122.02416 | 11063 ft | 308 kts | 338° |
| 2026-04-22 06:36 | 37.15445 | -122.03204 | 10937 ft | 297 kts | 338° |
| 2026-04-22 06:36 | 37.17388 | -122.03961 | 10761 ft | 289 kts | 338° |
| 2026-04-22 06:37 | 37.19295 | -122.04709 | 10479 ft | 285 kts | 338° |
| 2026-04-22 06:37 | 37.21162 | -122.05441 | 10321 ft | 277 kts | 338° |
| 2026-04-22 06:37 | 37.22990 | -122.06157 | 9985 ft | 274 kts | 338° |
| 2026-04-22 06:37 | 37.24807 | -122.06869 | 9604 ft | 273 kts | 338° |
| 2026-04-22 06:38 | 37.26622 | -122.07581 | 9221 ft | 272 kts | 338° |
| 2026-04-22 06:38 | 37.28421 | -122.08289 | 8836 ft | 270 kts | 338° |
| 2026-04-22 06:38 | 37.30183 | -122.08984 | 8416 ft | 269 kts | 338° |
| 2026-04-22 06:38 | 37.31963 | -122.09685 | 8054 ft | 267 kts | 338° |
| 2026-04-22 06:39 | 37.33741 | -122.10388 | 7561 ft | 270 kts | 339° |
| 2026-04-22 06:39 | 37.35574 | -122.11118 | 6825 ft | 281 kts | 339° |
| 2026-04-22 06:39 | 37.37476 | -122.11873 | 6091 ft | 291 kts | 339° |
| 2026-04-22 06:39 | 37.39411 | -122.12592 | 5667 ft | 288 kts | 341° |
| 2026-04-22 06:40 | 37.41313 | -122.13246 | 5301 ft | 275 kts | 342° |
| 2026-04-22 06:40 | 37.43110 | -122.13840 | 4990 ft | 258 kts | 342° |
| 2026-04-22 06:40 | 37.44753 | -122.14383 | 4693 ft | 238 kts | 341° |
| 2026-04-22 06:40 | 37.46306 | -122.14895 | 4411 ft | 224 kts | 342° |
| 2026-04-22 06:41 | 37.47775 | -122.15371 | 4143 ft | 213 kts | 342° |
| 2026-04-22 06:41 | 37.49182 | -122.15827 | 3890 ft | 204 kts | 342° |
| 2026-04-22 06:41 | 37.50535 | -122.16268 | 3651 ft | 198 kts | 341° |
| 2026-04-22 06:41 | 37.51821 | -122.16691 | 3466 ft | 184 kts | 339° |
| 2026-04-22 06:42 | 37.52941 | -122.17327 | 3222 ft | 170 kts | 323° |
| 2026-04-22 06:42 | 37.53805 | -122.18230 | 3077 ft | 153 kts | 304° |
| 2026-04-22 06:42 | 37.54373 | -122.19317 | 2954 ft | 146 kts | 296° |
| 2026-04-22 06:42 | 37.54869 | -122.20394 | 2823 ft | 139 kts | 294° |
| 2026-04-22 06:43 | 37.55331 | -122.21447 | 2619 ft | 137 kts | 294° |
| 2026-04-22 06:43 | 37.55782 | -122.22497 | 2445 ft | 136 kts | 293° |
| 2026-04-22 06:43 | 37.56223 | -122.23532 | 2264 ft | 136 kts | 293° |
| 2026-04-22 06:43 | 37.56670 | -122.24587 | 2075 ft | 136 kts | 294° |
| 2026-04-22 06:44 | 37.57122 | -122.25658 | 1886 ft | 137 kts | 294° |
| 2026-04-22 06:44 | 37.57563 | -122.26703 | 1699 ft | 137 kts | 294° |
| 2026-04-22 06:44 | 37.58009 | -122.27762 | 1506 ft | 137 kts | 294° |
| 2026-04-22 06:44 | 37.58455 | -122.28822 | 1295 ft | 138 kts | 294° |
| 2026-04-22 06:45 | 37.58905 | -122.29890 | 1106 ft | 138 kts | 295° |
| 2026-04-22 06:45 | 37.59355 | -122.30960 | 919 ft | 138 kts | 295° |
| 2026-04-22 06:45 | 37.59804 | -122.32026 | 729 ft | 138 kts | 295° |
| 2026-04-22 06:45 | 37.60254 | -122.33098 | 549 ft | 138 kts | 296° |
| 2026-04-22 06:46 | 37.60703 | -122.34165 | 366 ft | 137 kts | 295° |
| 2026-04-22 06:46 | 37.61143 | -122.35213 | 179 ft | 135 kts | 294° |
| 2026-04-22 06:46 | 37.61581 | -122.36254 | 20 ft | 132 kts | 296° |
| 2026-04-22 06:46 | 37.61918 | -122.37068 | 15 ft | 65 kts | 299° |
| 2026-04-22 06:47 | 37.62053 | -122.37382 | 16 ft | 36 kts | 297° |
| 2026-04-22 06:47 | 37.62159 | -122.37640 | 21 ft | 22 kts | 297° |
| 2026-04-22 06:47 | 37.62202 | -122.37826 | 20 ft | 22 kts | 278° |
| 2026-04-22 06:47 | 37.62220 | -122.38017 | 24 ft | 22 kts | 278° |
| 2026-04-22 06:48 | 37.62225 | -122.38213 | 22 ft | 23 kts | 259° |
| 2026-04-22 06:48 | 37.62217 | -122.38379 | 20 ft | 20 kts | 274° |
| 2026-04-22 06:48 | 37.62216 | -122.38517 | 20 ft | 13 kts | 266° |
| 2026-04-22 06:48 | 37.62184 | -122.38624 | 17 ft | 14 kts | 210° |
| 2026-04-22 06:49 | 37.62115 | -122.38557 | 18 ft | 13 kts | 119° |
| 2026-04-22 06:49 | 37.62090 | -122.38497 | 19 ft | 0 kts | 117° |
| 2026-04-22 06:49 | 37.62090 | -122.38496 | 19 ft | 1 kts | 117° |
| 2026-04-22 06:49 | 37.62075 | -122.38459 | 20 ft | 8 kts | 117° |
| 2026-04-22 06:50 | 37.62045 | -122.38389 | 22 ft | 6 kts | 120° |
| 2026-04-22 06:50 | 37.62005 | -122.38378 | 23 ft | 4 kts | 206° |
| 2026-04-22 06:50 | 37.61983 | -122.38400 | 21 ft | 4 kts | 217° |
| 2026-04-22 06:50 | 37.61980 | -122.38403 | 21 ft | 0 kts | 217° |